Tropical Cyclones
[Index]
Main Index Home Page Stock Weather Photos Extreme Storms Discussion Storm News and Storm Chasing Reports Tropical Cyclones / Hurricanes / Typhoons Weather Data and Links Wild Fires / Bushfires Weather Observation Techniques Weather Picture Catalogue Tornado Pictures and Reports Stock Video Footage and DVDs for sale
Season 1996-1997 Tropical Cyclone HAROLD Track Map
Season 1996-1997 Summaries: [BoM-AU] [JTWC-AU] [JTWC-SIO] [JTWC-SPAC] [JTWC-SH]
<<- Previous TC | JTWC 1996-1997 Season | Next TC ->>

click for intensity scale information  Lat/long Grid: Show Hide

 Date Labels: Show Hide

Joint Typhoon Warning Centre Cyclone Data

Name: HAROLD

14 Feb 1997 06:00 UTC to 22 Feb 1997 18:00 UTC

    date/time    lat    long     hPa   cat  kts
1997-02-14 06   11.0   163.0                  20          
1997-02-14 12   11.0   163.0                  20          
1997-02-14 18   11.3   162.5                  20          
1997-02-15 00   11.8   161.8                  20          
1997-02-15 06   12.3   160.9                  20          
1997-02-15 12   12.7   160.1                  20          
1997-02-15 18   12.8   159.5                  25          
1997-02-16 00   13.0   159.0                  25          
1997-02-16 06   13.3   158.4                  25          
1997-02-16 12   13.8   157.8                  25          
1997-02-16 18   14.4   157.2                  30          
1997-02-17 00   15.2   156.5                  35          
1997-02-17 06   15.9   155.9            1     40          
1997-02-17 12   16.4   155.2            1     45          
1997-02-17 18   16.9   155.1            2     55          
1997-02-18 00   17.3   155.1            2     55          
1997-02-18 06   17.7   155.5            2     55          
1997-02-18 12   17.9   156.2            2     55          
1997-02-18 18   18.2   157.0            2     55          
1997-02-19 00   18.6   157.7            2     55          
1997-02-19 06   19.0   158.5            2     55          
1997-02-19 12   19.6   159.3            2     55          
1997-02-19 18   20.4   160.3            2     55          
1997-02-20 00   21.2   161.3            1     50          
1997-02-20 06   22.1   162.3            1     45          
1997-02-20 12   23.1   163.2                  35          
1997-02-20 18   24.3   164.0                  30          
1997-02-21 00   25.9   164.5                  30          
1997-02-21 06   27.5   165.0                  25          
1997-02-21 12   29.4   165.1                  25          
1997-02-21 18   30.9   165.4                  25          
1997-02-22 00   32.0   165.7                  25          
1997-02-22 06   32.9   166.4                  25          
1997-02-22 12   33.7   167.4                  25          
1997-02-22 18   34.5   168.5                  25          
Winds are 1-min average.

Tropical cyclone tracks developed by Michael Bath using data from the Joint Typhoon Warning Centre Best Tracks and Google Maps.


[Australian Severe Weather index] [Copyright Notice] [Email Contacts] [Search This Site] [Privacy Policy]
Document: tropical_cyclone_harold.htm Updated: 18 September 2016